createdAt,value
2022-11-24T00:00:11.547Z,5.12
2022-11-24T00:05:11.452Z,5.23
2022-11-24T00:10:11.446Z,4.91
2022-11-24T00:15:11.314Z,4.73
2022-11-24T00:20:11.209Z,4.55
2022-11-24T00:25:11.163Z,5.32
2022-11-24T00:30:11.996Z,5.53
2022-11-24T00:35:10.962Z,5.57
2022-11-24T00:43:33.535Z,5.40
2022-11-24T00:48:32.989Z,5.68
2022-11-24T00:53:33.029Z,5.73
2022-11-24T00:58:32.849Z,5.77
2022-11-24T01:03:32.915Z,5.78
2022-11-24T01:08:32.745Z,5.73
2022-11-24T01:13:32.914Z,5.88
2022-11-24T01:18:32.600Z,5.88
2022-11-24T01:23:32.673Z,5.93
2022-11-24T01:28:32.540Z,5.98
2022-11-24T01:33:35.461Z,6.04
2022-11-24T01:38:32.511Z,5.70
2022-11-24T01:43:32.559Z,6.07
2022-11-24T01:48:32.306Z,5.73
2022-11-24T01:53:32.280Z,5.38
2022-11-24T01:58:32.249Z,5.66
2022-11-24T02:03:32.190Z,5.43
2022-11-24T02:08:31.983Z,5.31
2022-11-24T02:13:32.024Z,5.43
2022-11-24T02:18:32.213Z,5.43
2022-11-24T03:21:40.928Z,6.63
2022-11-24T03:26:39.999Z,6.69
2022-11-24T03:31:40.112Z,6.69
2022-11-24T03:36:39.927Z,6.77
2022-11-24T03:41:39.839Z,6.68
2022-11-24T03:46:39.744Z,6.69
2022-11-24T03:51:39.668Z,6.68
2022-11-24T03:56:39.590Z,6.62
2022-11-24T04:01:39.654Z,6.46
2022-11-24T04:06:39.651Z,6.40
2022-11-24T04:11:42.365Z,6.26
2022-11-24T04:16:39.435Z,6.00
2022-11-24T04:21:39.330Z,6.26
2022-11-24T04:26:39.090Z,5.71
2022-11-24T04:31:39.876Z,5.55
2022-11-24T04:36:39.050Z,5.01
2022-11-24T04:48:31.871Z,5.19
2022-11-24T04:53:31.713Z,5.37
2022-11-24T04:58:31.685Z,5.35
2022-11-24T05:03:31.504Z,5.49
2022-11-24T05:08:31.464Z,5.56
2022-11-24T05:13:31.395Z,6.03
2022-11-24T05:18:31.281Z,6.38
2022-11-24T05:57:58.072Z,6.29
2022-11-24T06:02:57.031Z,6.38
2022-11-24T06:07:56.713Z,6.25
2022-11-24T06:12:56.767Z,6.19
2022-11-24T06:17:56.508Z,5.86
2022-11-24T06:22:56.376Z,5.20
2022-11-24T06:27:56.531Z,5.56
2022-11-24T06:32:56.349Z,5.66
2022-11-24T06:37:56.259Z,5.46
2022-11-24T06:42:56.145Z,5.53
2022-11-24T06:47:59.212Z,5.60
2022-11-24T06:52:56.164Z,5.14
2022-11-24T06:57:56.009Z,5.41
2022-11-24T07:02:56.084Z,5.17
2022-11-24T07:07:56.749Z,5.70
2022-11-24T07:12:55.908Z,5.31
2022-11-24T07:17:56.008Z,4.86
2022-11-24T07:25:15.122Z,5.37
2022-11-24T07:33:33.897Z,5.88
2022-11-24T07:38:33.846Z,5.98
2022-11-24T07:43:33.712Z,6.22
2022-11-24T07:48:33.517Z,6.89
2022-11-24T07:53:33.619Z,7.12
2022-11-24T07:58:33.541Z,7.20
2022-11-24T08:03:33.423Z,7.71
2022-11-24T08:08:33.470Z,7.92
2022-11-24T08:13:33.555Z,8.00
2022-11-24T08:18:33.090Z,8.20
2022-11-24T08:23:36.459Z,8.39
2022-11-24T08:28:33.157Z,8.32
2022-11-24T08:33:33.174Z,8.71
2022-11-24T08:38:32.820Z,8.86
2022-11-24T08:43:32.840Z,8.90
2022-11-24T08:48:33.012Z,9.04
2022-11-24T08:53:32.795Z,9.10
2022-11-24T08:58:32.729Z,9.30
2022-11-24T09:03:44.781Z,9.53
2022-11-24T09:09:47.403Z,9.15
2022-11-24T09:14:47.041Z,9.50
2022-11-24T09:19:47.113Z,9.63
2022-11-24T09:24:46.915Z,9.85
2022-11-24T09:29:47.015Z,10.06
2022-11-24T09:34:46.785Z,10.03
2022-11-24T09:39:46.779Z,10.01
2022-11-24T09:44:46.656Z,9.94
2022-11-24T09:49:51.075Z,9.75
2022-11-24T09:54:47.834Z,9.68
2022-11-24T09:59:49.581Z,9.94
2022-11-24T10:04:46.522Z,9.68
2022-11-24T10:09:46.469Z,10.06
2022-11-24T10:14:46.295Z,10.10
2022-11-24T10:19:46.340Z,10.04
2022-11-24T10:24:46.152Z,9.94
2022-11-24T10:29:46.188Z,9.91
2022-11-24T10:34:46.082Z,10.26
2022-11-24T10:39:46.023Z,10.55
2022-11-24T10:44:45.879Z,10.81
2022-11-24T10:49:45.911Z,10.98
2022-11-24T10:54:45.771Z,11.16
2022-11-24T10:59:48.972Z,11.24
2022-11-24T11:04:45.600Z,11.11
2022-11-24T11:09:45.663Z,11.32
2022-11-24T11:14:45.473Z,11.52
2022-11-24T11:19:50.003Z,11.62
2022-11-24T11:24:45.399Z,11.65
2022-11-24T11:34:46.460Z,11.44
2022-11-24T11:39:48.658Z,11.46
2022-11-24T11:44:45.247Z,11.99
2022-11-24T11:49:45.080Z,12.08
2022-11-24T11:54:45.084Z,12.04
2022-11-24T11:59:48.164Z,12.21
2022-11-24T12:04:44.856Z,12.09
2022-11-24T12:09:44.874Z,12.51
2022-11-24T12:14:44.771Z,12.46
2022-11-24T12:19:44.940Z,12.64
2022-11-24T12:24:44.734Z,12.92
2022-11-24T12:29:44.581Z,13.15
2022-11-24T12:34:44.490Z,12.95
2022-11-24T12:39:44.627Z,12.81
2022-11-24T12:44:44.427Z,12.49
2022-11-24T12:49:44.429Z,12.84
2022-11-24T12:54:44.254Z,12.79
2022-11-24T12:59:47.175Z,13.15
2022-11-24T13:04:44.040Z,12.54
2022-11-24T13:09:44.147Z,13.07
2022-11-24T13:14:44.072Z,13.36
2022-11-24T13:19:43.927Z,13.24
2022-11-24T13:24:43.887Z,13.21
2022-11-24T13:29:43.919Z,12.84
2022-11-24T13:34:43.646Z,12.60
2022-11-24T13:39:47.469Z,12.69
2022-11-24T13:44:44.634Z,12.96
2022-11-24T13:49:43.511Z,12.77
2022-11-24T13:54:43.482Z,12.59
2022-11-24T13:59:47.279Z,12.99
2022-11-24T14:04:43.512Z,12.33
2022-11-24T14:09:44.293Z,12.48
2022-11-24T14:14:43.116Z,12.52
2022-11-24T14:19:43.375Z,12.46
2022-11-24T14:24:43.552Z,12.15
2022-11-24T14:29:42.972Z,12.21
2022-11-24T14:34:43.896Z,12.20
2022-11-24T14:39:42.919Z,12.05
2022-11-24T14:44:42.855Z,12.12
2022-11-24T14:49:43.136Z,11.97
2022-11-24T14:54:43.111Z,11.85
2022-11-24T14:59:45.642Z,11.87
2022-11-24T15:09:43.452Z,11.74
2022-11-24T15:14:42.500Z,11.52
2022-11-24T15:19:42.650Z,11.27
2022-11-24T15:24:42.211Z,11.29
2022-11-24T15:29:42.284Z,11.20
2022-11-24T15:34:42.172Z,11.10
2022-11-24T15:39:42.091Z,11.06
2022-11-24T15:44:41.997Z,11.11
2022-11-24T15:49:42.114Z,10.94
2022-11-24T15:54:41.864Z,10.66
2022-11-24T15:59:44.971Z,10.91
2022-11-24T16:04:41.844Z,10.26
2022-11-24T16:09:41.720Z,10.26
2022-11-24T16:14:41.639Z,10.21
2022-11-24T16:19:42.143Z,9.68
2022-11-24T16:24:41.567Z,9.39
2022-11-24T16:29:41.385Z,9.48
2022-11-24T16:34:41.288Z,9.42
2022-11-24T16:39:46.951Z,9.48
2022-11-24T16:44:42.270Z,9.56
2022-11-24T16:49:41.129Z,9.70
2022-11-24T16:54:41.162Z,9.67
2022-11-24T16:59:44.145Z,9.82
2022-11-24T17:04:40.947Z,9.58
2022-11-24T17:09:48.765Z,10.19
2022-11-24T17:15:09.504Z,10.15
2022-11-24T17:19:41.725Z,9.99
2022-11-24T17:24:40.732Z,9.88
2022-11-24T17:29:40.685Z,10.01
2022-11-24T17:34:40.546Z,9.89
2022-11-24T17:39:42.257Z,9.93
2022-11-24T17:44:40.464Z,10.32
2022-11-24T17:49:40.455Z,10.00
2022-11-24T17:54:46.466Z,10.12
2022-11-24T17:59:44.279Z,9.99
2022-11-24T18:04:40.135Z,9.56
2022-11-24T18:09:40.240Z,9.85
2022-11-24T18:14:40.134Z,10.17
2022-11-24T18:19:40.151Z,10.12
2022-11-24T18:24:40.260Z,9.93
2022-11-24T18:29:39.853Z,9.75
2022-11-24T18:34:39.794Z,9.86
2022-11-24T18:39:39.864Z,9.83
2022-11-24T18:44:39.609Z,9.99
2022-11-24T18:49:39.592Z,9.86
2022-11-24T18:54:39.462Z,9.91
2022-11-24T18:59:42.729Z,9.82
2022-11-24T19:04:39.417Z,9.45
2022-11-24T19:09:39.944Z,9.38
2022-11-24T19:14:39.310Z,9.18
2022-11-24T19:19:47.549Z,9.48
2022-11-24T19:24:46.789Z,9.49
2022-11-24T19:29:42.950Z,8.86
2022-11-24T19:34:38.995Z,8.96
2022-11-24T19:39:38.939Z,8.87
2022-11-24T19:44:38.980Z,8.68
2022-11-24T19:49:38.789Z,8.65
2022-11-24T19:54:38.827Z,8.62
2022-11-24T19:59:41.658Z,8.57
2022-11-24T20:04:38.740Z,8.37
2022-11-24T20:09:38.546Z,8.40
2022-11-24T20:14:38.512Z,9.06
2022-11-24T20:19:38.485Z,8.69
2022-11-24T20:24:38.330Z,8.35
2022-11-24T20:29:42.478Z,8.17
2022-11-24T20:34:39.416Z,8.08
2022-11-24T20:39:38.124Z,8.65
2022-11-24T20:44:38.125Z,8.60
2022-11-24T20:49:37.983Z,8.55
2022-11-24T20:54:38.140Z,8.76
2022-11-24T21:02:30.286Z,8.75
2022-11-24T21:07:30.220Z,8.94
2022-11-24T21:12:29.920Z,8.99
2022-11-24T21:17:29.869Z,8.76
2022-11-24T21:22:29.907Z,8.99
2022-11-24T21:27:29.655Z,8.58
2022-11-24T21:32:29.827Z,8.55
2022-11-24T21:37:29.599Z,8.87
2022-11-24T21:42:29.544Z,9.15
2022-11-24T21:47:29.437Z,9.13
2022-11-24T21:52:32.907Z,8.96
2022-11-24T21:57:29.320Z,8.17
2022-11-24T22:02:29.310Z,8.32
2022-11-24T22:07:29.318Z,8.14
2022-11-24T22:12:29.140Z,8.20
2022-11-24T22:17:29.043Z,8.53
2022-11-24T22:22:29.130Z,8.58
2022-11-24T22:27:28.949Z,8.72
2022-11-24T22:32:29.738Z,8.62
2022-11-24T22:37:29.001Z,8.63
2022-11-24T22:42:28.814Z,8.44
2022-11-24T22:47:28.865Z,8.44
2022-11-24T22:52:31.725Z,8.22
2022-11-24T22:57:28.622Z,7.99
2022-11-24T23:02:28.597Z,8.14
2022-11-24T23:07:28.407Z,7.85
2022-11-24T23:12:28.367Z,7.81
2022-11-24T23:17:28.261Z,7.34
2022-11-24T23:22:28.191Z,7.32
2022-11-24T23:27:28.140Z,7.24
2022-11-24T23:32:28.182Z,7.37
2022-11-24T23:37:52.107Z,7.09
2022-11-24T23:42:29.030Z,6.95
2022-11-24T23:47:28.145Z,6.86
2022-11-24T23:52:30.846Z,6.69
2022-11-24T23:57:27.875Z,6.36
